N82TWC HI23-PHHN
Flight info
| Callsign | N82TWC |
|---|---|
| Flight time | N/A |
| Altitude | 5000 |
| Route | LIMITED SIGHTSEEING AROUND MAUI BEFORE COMING INTO LAND AT HANA |
| Aircraft | C152/L-G/C |
Departure
| Time | 2026-04-21 16:22 |
|---|---|
| Airport | Mountain View Airstrip (HI23) |
Arrival
| Time | N/A |
|---|---|
| Airport | Hana Airport (PHHN) |
| Time | Latitude | Longitude | Altitude | Speed | Heading |
|---|---|---|---|---|---|
| 2026-04-21 16:06 | 19.54657 | -155.10826 | 1499 ft | 0 kts | 47° |
| 2026-04-21 16:09 | 19.54658 | -155.10824 | 1501 ft | 4 kts | 69° |
| 2026-04-21 16:10 | 19.54660 | -155.10804 | 1500 ft | 10 kts | 75° |
| 2026-04-21 16:10 | 19.54685 | -155.10744 | 1486 ft | 21 kts | 59° |
| 2026-04-21 16:11 | 19.54722 | -155.10681 | 1481 ft | 0 kts | 67° |
| 2026-04-21 16:16 | 19.54730 | -155.10620 | 1481 ft | 1 kts | 161° |
| 2026-04-21 16:16 | 19.54718 | -155.10633 | 1477 ft | 2 kts | 239° |
| 2026-04-21 16:17 | 19.54716 | -155.10636 | 1479 ft | 4 kts | 242° |
| 2026-04-21 16:17 | 19.54647 | -155.10791 | 1497 ft | 39 kts | 243° |
| 2026-04-21 16:17 | 19.54463 | -155.11052 | 1548 ft | 45 kts | 224° |
| 2026-04-21 16:17 | 19.54230 | -155.11275 | 1583 ft | 45 kts | 224° |
| 2026-04-21 16:18 | 19.54006 | -155.11489 | 1635 ft | 40 kts | 229° |
| 2026-04-21 16:18 | 19.54663 | -155.10819 | 1499 ft | 0 kts | 47° |
| 2026-04-21 16:19 | 19.54663 | -155.10820 | 1497 ft | 1 kts | 48° |
| 2026-04-21 16:19 | 19.54659 | -155.10824 | 1501 ft | 1 kts | 47° |
| 2026-04-21 16:19 | 19.54665 | -155.10793 | 1496 ft | 14 kts | 56° |
| 2026-04-21 16:19 | 19.54723 | -155.10664 | 1483 ft | 12 kts | 69° |
| 2026-04-21 16:20 | 19.54717 | -155.10620 | 1476 ft | 1 kts | 232° |
| 2026-04-21 16:20 | 19.54712 | -155.10629 | 1478 ft | 10 kts | 240° |
| 2026-04-21 16:21 | 19.54617 | -155.10821 | 1498 ft | 47 kts | 241° |
| 2026-04-21 16:21 | 19.54419 | -155.11153 | 1598 ft | 55 kts | 237° |
| 2026-04-21 16:21 | 19.54195 | -155.11487 | 1703 ft | 59 kts | 235° |
| 2026-04-21 16:21 | 19.53950 | -155.11860 | 1827 ft | 64 kts | 238° |
| 2026-04-21 16:22 | 19.53753 | -155.12261 | 2018 ft | 57 kts | 271° |
| 2026-04-21 16:22 | 19.54049 | -155.12562 | 2119 ft | 71 kts | 333° |
| 2026-04-21 16:22 | 19.54547 | -155.12755 | 2235 ft | 82 kts | 341° |
| 2026-04-21 16:22 | 19.55127 | -155.12919 | 2313 ft | 90 kts | 342° |
| 2026-04-21 16:23 | 19.55731 | -155.13107 | 2418 ft | 91 kts | 339° |
| 2026-04-21 16:23 | 19.56340 | -155.13304 | 2536 ft | 94 kts | 342° |
| 2026-04-21 16:23 | 19.56980 | -155.13484 | 2605 ft | 98 kts | 344° |
| 2026-04-21 16:23 | 19.57627 | -155.13654 | 2677 ft | 93 kts | 342° |
| 2026-04-21 16:24 | 19.58226 | -155.13850 | 2781 ft | 87 kts | 340° |
| 2026-04-21 16:24 | 19.58793 | -155.14034 | 2881 ft | 86 kts | 342° |
| 2026-04-21 16:24 | 19.59360 | -155.14229 | 2983 ft | 85 kts | 339° |
| 2026-04-21 16:24 | 19.59915 | -155.14455 | 3076 ft | 85 kts | 335° |
| 2026-04-21 16:25 | 19.60422 | -155.14753 | 3179 ft | 83 kts | 329° |
| 2026-04-21 16:25 | 19.60919 | -155.15049 | 3287 ft | 81 kts | 329° |
| 2026-04-21 16:25 | 19.61422 | -155.15307 | 3388 ft | 81 kts | 336° |
| 2026-04-21 16:25 | 19.61941 | -155.15521 | 3521 ft | 79 kts | 339° |
| 2026-04-21 16:26 | 19.62466 | -155.15730 | 3628 ft | 82 kts | 333° |
| 2026-04-21 16:26 | 19.62983 | -155.16003 | 3716 ft | 84 kts | 332° |
| 2026-04-21 16:26 | 19.63506 | -155.16284 | 3816 ft | 84 kts | 337° |
| 2026-04-21 16:26 | 19.64051 | -155.16492 | 3915 ft | 84 kts | 345° |
| 2026-04-21 16:27 | 19.64614 | -155.16613 | 4015 ft | 84 kts | 352° |
| 2026-04-21 16:27 | 19.65201 | -155.16702 | 4108 ft | 84 kts | 353° |
| 2026-04-21 16:27 | 19.65763 | -155.16806 | 4238 ft | 79 kts | 354° |
| 2026-04-21 16:27 | 19.66320 | -155.16880 | 4329 ft | 81 kts | 354° |
| 2026-04-21 16:28 | 19.66874 | -155.16975 | 4444 ft | 81 kts | 350° |
| 2026-04-21 16:28 | 19.67425 | -155.17106 | 4548 ft | 81 kts | 348° |
| 2026-04-21 16:28 | 19.67978 | -155.17220 | 4650 ft | 82 kts | 352° |
| 2026-04-21 16:28 | 19.68549 | -155.17322 | 4711 ft | 86 kts | 350° |
| 2026-04-21 16:29 | 19.69122 | -155.17505 | 4811 ft | 85 kts | 344° |
| 2026-04-21 16:29 | 19.69685 | -155.17693 | 4902 ft | 85 kts | 342° |
| 2026-04-21 16:29 | 19.70252 | -155.17863 | 5011 ft | 83 kts | 351° |
| 2026-04-21 16:29 | 19.70831 | -155.17908 | 5090 ft | 84 kts | 1° |
| 2026-04-21 16:30 | 19.71421 | -155.17945 | 5177 ft | 84 kts | 349° |
| 2026-04-21 16:30 | 19.71986 | -155.18102 | 5255 ft | 86 kts | 344° |
| 2026-04-21 16:30 | 19.72543 | -155.18332 | 5335 ft | 86 kts | 335° |
| 2026-04-21 16:30 | 19.73069 | -155.18623 | 5410 ft | 86 kts | 338° |
| 2026-04-21 16:31 | 19.73638 | -155.18859 | 5455 ft | 89 kts | 343° |
| 2026-04-21 16:31 | 19.74248 | -155.19038 | 5479 ft | 93 kts | 349° |
| 2026-04-21 16:31 | 19.74871 | -155.19182 | 5574 ft | 85 kts | 353° |
| 2026-04-21 16:31 | 19.75440 | -155.19249 | 5682 ft | 83 kts | 351° |
| 2026-04-21 16:32 | 19.75973 | -155.19454 | 5789 ft | 81 kts | 331° |
| 2026-04-21 16:32 | 19.76468 | -155.19745 | 5859 ft | 82 kts | 335° |
| 2026-04-21 16:32 | 19.76973 | -155.20031 | 5945 ft | 83 kts | 329° |
| 2026-04-21 16:32 | 19.77471 | -155.20373 | 5992 ft | 87 kts | 331° |
| 2026-04-21 16:33 | 19.77993 | -155.20732 | 6003 ft | 93 kts | 326° |
| 2026-04-21 16:33 | 19.78552 | -155.21103 | 5997 ft | 96 kts | 334° |
| 2026-04-21 16:33 | 19.79348 | -155.21531 | 5996 ft | 98 kts | 333° |
| 2026-04-21 16:33 | 19.79922 | -155.21909 | 5985 ft | 100 kts | 326° |
| 2026-04-21 16:34 | 19.80492 | -155.22377 | 5987 ft | 100 kts | 320° |
| 2026-04-21 16:34 | 19.81036 | -155.22825 | 6021 ft | 96 kts | 328° |
| 2026-04-21 16:34 | 19.81617 | -155.23213 | 5994 ft | 101 kts | 330° |
| 2026-04-21 16:34 | 19.82213 | -155.23608 | 5994 ft | 101 kts | 328° |
| 2026-04-21 16:35 | 19.82804 | -155.24008 | 5997 ft | 100 kts | 328° |
| 2026-04-21 16:35 | 19.83364 | -155.24396 | 6046 ft | 95 kts | 326° |
| 2026-04-21 16:35 | 19.83936 | -155.24798 | 6013 ft | 100 kts | 328° |
| 2026-04-21 16:35 | 19.84509 | -155.25226 | 6002 ft | 101 kts | 325° |
| 2026-04-21 16:36 | 19.85069 | -155.25677 | 5992 ft | 101 kts | 326° |
| 2026-04-21 16:36 | 19.85661 | -155.26094 | 5972 ft | 102 kts | 328° |
| 2026-04-21 16:36 | 19.86241 | -155.26491 | 6012 ft | 98 kts | 327° |
| 2026-04-21 16:36 | 19.86815 | -155.26894 | 6021 ft | 100 kts | 326° |